createdAt,value
2023-05-25T00:02:27.062Z,16.60
2023-05-25T00:06:41.517Z,18.00
2023-05-25T00:10:49.030Z,17.10
2023-05-25T00:14:57.669Z,17.40
2023-05-25T00:19:06.297Z,16.60
2023-05-25T00:23:15.412Z,16.90
2023-05-25T00:27:25.003Z,17.70
2023-05-25T00:31:33.630Z,19.50
2023-05-25T00:35:42.773Z,16.90
2023-05-25T00:39:51.229Z,20.80
2023-05-25T00:43:59.104Z,24.50
2023-05-25T00:48:07.790Z,21.20
2023-05-25T00:52:16.264Z,23.10
2023-05-25T00:56:29.184Z,19.70
2023-05-25T01:00:38.079Z,19.80
2023-05-25T01:04:48.375Z,19.70
2023-05-25T01:09:03.870Z,18.50
2023-05-25T01:13:13.252Z,16.70
2023-05-25T01:17:21.474Z,18.10
2023-05-25T01:21:34.624Z,14.90
2023-05-25T01:25:45.744Z,17.00
2023-05-25T01:29:55.535Z,14.40
2023-05-25T01:34:04.288Z,16.50
2023-05-25T01:38:13.021Z,18.50
2023-05-25T01:42:21.218Z,17.90
2023-05-25T01:46:37.313Z,16.90
2023-05-25T01:50:52.073Z,17.20
2023-05-25T01:55:05.046Z,14.40
2023-05-25T01:59:14.093Z,16.60
2023-05-25T02:03:22.720Z,19.10
2023-05-25T02:07:30.285Z,22.10
2023-05-25T02:11:38.378Z,19.50
2023-05-25T02:15:46.688Z,18.70
2023-05-25T02:19:55.306Z,21.50
2023-05-25T02:24:04.041Z,20.30
2023-05-25T02:28:12.166Z,17.10
2023-05-25T02:32:21.369Z,20.70
2023-05-25T02:36:29.758Z,22.20
2023-05-25T02:40:37.303Z,22.60
2023-05-25T02:44:48.592Z,19.00
2023-05-25T02:48:56.333Z,19.20
2023-05-25T02:53:04.487Z,20.80
2023-05-25T02:57:12.048Z,19.50
2023-05-25T03:01:20.371Z,19.40
2023-05-25T03:05:29.522Z,19.10
2023-05-25T03:09:38.658Z,18.40
2023-05-25T03:13:47.320Z,18.10
2023-05-25T03:17:57.004Z,18.40
2023-05-25T03:22:06.827Z,14.80
2023-05-25T03:26:15.926Z,18.40
2023-05-25T03:30:24.064Z,19.60
2023-05-25T03:34:35.089Z,18.20
2023-05-25T03:38:43.860Z,16.80
2023-05-25T03:42:52.182Z,18.40
2023-05-25T03:47:00.274Z,18.20
2023-05-25T03:51:09.650Z,22.10
2023-05-25T03:55:18.135Z,17.20
2023-05-25T03:59:26.843Z,17.30
2023-05-25T04:03:35.076Z,19.70
2023-05-25T04:07:43.454Z,24.40
2023-05-25T04:11:51.239Z,20.70
2023-05-25T04:15:59.571Z,19.60
2023-05-25T04:20:08.973Z,26.20
2023-05-25T04:24:16.358Z,20.60
2023-05-25T04:28:25.481Z,21.30
2023-05-25T04:32:37.699Z,18.70
2023-05-25T04:36:45.588Z,18.20
2023-05-25T04:40:58.296Z,17.00
2023-05-25T04:45:21.656Z,23.20
2023-05-25T04:49:39.054Z,18.10
2023-05-25T04:53:49.437Z,14.80
2023-05-25T04:57:59.196Z,16.40
2023-05-25T05:02:17.049Z,16.00
2023-05-25T05:06:27.352Z,14.30
2023-05-25T05:10:37.771Z,17.20
2023-05-25T05:14:45.677Z,20.00
2023-05-25T05:19:00.236Z,15.20
2023-05-25T05:23:13.605Z,18.90
2023-05-25T05:27:22.955Z,18.80
2023-05-25T05:31:31.950Z,21.00
2023-05-25T05:35:47.522Z,18.80
2023-05-25T05:39:55.771Z,19.00
2023-05-25T05:44:07.400Z,19.90
2023-05-25T05:48:21.381Z,17.20
2023-05-25T05:52:29.972Z,18.70
2023-05-25T05:56:40.509Z,22.10
2023-05-25T06:01:02.965Z,15.10
2023-05-25T06:05:13.607Z,17.60
2023-05-25T06:09:20.983Z,17.30
2023-05-25T06:13:31.612Z,18.60
2023-05-25T06:17:44.668Z,15.40
2023-05-25T06:21:59.519Z,16.60
2023-05-25T06:26:18.261Z,20.20
2023-05-25T06:30:26.253Z,18.70
2023-05-25T06:34:41.634Z,24.30
2023-05-25T06:38:56.693Z,23.10
2023-05-25T06:43:06.740Z,26.80
2023-05-25T06:47:22.048Z,17.70
2023-05-25T06:51:32.934Z,19.70
2023-05-25T06:55:46.349Z,18.10
2023-05-25T06:59:57.605Z,14.80
2023-05-25T07:04:05.157Z,18.20
2023-05-25T07:08:12.587Z,16.80
2023-05-25T07:12:22.585Z,14.60
2023-05-25T07:16:37.870Z,13.70
2023-05-25T07:20:49.130Z,13.90
2023-05-25T07:24:58.611Z,16.80
2023-05-25T07:29:06.405Z,13.50
2023-05-25T07:33:16.693Z,14.50
2023-05-25T07:37:24.351Z,14.60
2023-05-25T07:41:32.480Z,13.60
2023-05-25T07:45:40.058Z,13.00
2023-05-25T07:49:53.741Z,15.50
2023-05-25T07:54:02.940Z,17.20
2023-05-25T07:58:15.069Z,11.80
2023-05-25T08:02:24.493Z,12.50
2023-05-25T08:06:32.470Z,13.80
2023-05-25T08:10:40.224Z,13.90
2023-05-25T08:14:48.963Z,12.80
2023-05-25T08:19:01.913Z,14.60
2023-05-25T08:23:14.347Z,12.70
2023-05-25T08:27:22.379Z,16.00
2023-05-25T08:31:33.195Z,12.50
2023-05-25T08:35:43.336Z,13.40
2023-05-25T08:39:51.430Z,11.90
2023-05-25T08:44:07.085Z,11.60
2023-05-25T08:48:35.482Z,14.10
2023-05-25T08:52:48.266Z,11.70
2023-05-25T08:57:00.707Z,13.50
2023-05-25T09:01:16.729Z,12.20
2023-05-25T09:05:36.758Z,12.60
2023-05-25T09:09:45.918Z,13.50
2023-05-25T09:13:58.377Z,10.60
2023-05-25T09:18:07.558Z,11.10
2023-05-25T09:22:16.896Z,13.20
2023-05-25T09:26:29.371Z,14.10
2023-05-25T09:30:42.290Z,11.70
2023-05-25T09:34:58.421Z,14.00
2023-05-25T09:39:09.898Z,13.20
2023-05-25T09:43:39.208Z,14.10
2023-05-25T09:47:55.711Z,14.80
2023-05-25T09:52:07.492Z,11.80
2023-05-25T09:56:17.633Z,13.70
2023-05-25T10:00:27.762Z,11.10
2023-05-25T10:04:42.626Z,10.40
2023-05-25T10:08:52.784Z,11.00
2023-05-25T10:13:01.233Z,10.80
2023-05-25T10:17:09.621Z,15.70
2023-05-25T10:21:19.595Z,12.20
2023-05-25T10:25:29.497Z,14.60
2023-05-25T10:29:38.171Z,15.20
2023-05-25T10:33:49.187Z,15.70
2023-05-25T10:38:00.362Z,11.30
2023-05-25T10:42:09.763Z,11.50
2023-05-25T10:46:19.150Z,12.60
2023-05-25T10:50:28.839Z,12.80
2023-05-25T10:54:39.673Z,11.40
2023-05-25T10:58:49.836Z,11.90
2023-05-25T11:02:58.031Z,10.60
2023-05-25T11:07:14.355Z,11.60
2023-05-25T11:11:22.613Z,11.70
2023-05-25T11:15:33.113Z,10.80
2023-05-25T11:19:47.936Z,11.10
2023-05-25T11:24:04.669Z,11.10
2023-05-25T11:28:13.413Z,10.80
2023-05-25T11:32:21.294Z,11.30
2023-05-25T11:36:31.719Z,10.70
2023-05-25T11:40:40.551Z,10.80
2023-05-25T11:44:48.843Z,10.50
2023-05-25T11:48:57.365Z,11.00
2023-05-25T11:53:08.792Z,11.80
2023-05-25T11:57:22.877Z,10.10
2023-05-25T12:01:32.175Z,9.40
2023-05-25T12:05:42.978Z,10.60
2023-05-25T12:09:51.639Z,10.20
2023-05-25T12:14:00.482Z,11.40
2023-05-25T12:18:10.101Z,11.00
2023-05-25T12:22:18.966Z,11.50
2023-05-25T12:26:27.829Z,11.30
2023-05-25T12:30:36.048Z,15.20
2023-05-25T12:34:43.973Z,11.10
2023-05-25T12:39:02.381Z,11.60
2023-05-25T12:43:12.020Z,11.40
2023-05-25T12:47:21.040Z,9.60
2023-05-25T12:51:29.872Z,10.80
2023-05-25T12:55:38.483Z,9.40
2023-05-25T12:59:47.381Z,10.60
2023-05-25T13:03:57.871Z,11.60
2023-05-25T13:08:06.314Z,9.20
2023-05-25T13:12:16.867Z,8.60
2023-05-25T13:16:26.292Z,11.40
2023-05-25T13:20:34.367Z,10.80
2023-05-25T13:24:42.209Z,10.40
2023-05-25T13:28:49.806Z,10.70
2023-05-25T13:32:57.546Z,9.40
2023-05-25T13:37:05.216Z,12.20
2023-05-25T13:41:14.240Z,11.80
2023-05-25T13:45:23.508Z,10.60
2023-05-25T13:49:31.099Z,14.60
2023-05-25T13:53:38.682Z,13.10
2023-05-25T13:57:46.638Z,9.20
2023-05-25T14:01:56.214Z,11.20
2023-05-25T14:06:04.332Z,8.40
2023-05-25T14:10:16.013Z,9.20
2023-05-25T14:14:30.568Z,12.50
2023-05-25T14:18:39.920Z,9.40
2023-05-25T14:22:47.467Z,9.70
2023-05-25T14:26:55.000Z,9.40
2023-05-25T14:31:03.333Z,11.00
2023-05-25T14:35:12.173Z,10.00
2023-05-25T14:39:19.745Z,9.60
2023-05-25T14:43:27.524Z,9.90
2023-05-25T14:47:35.346Z,9.00
2023-05-25T14:51:42.894Z,8.70
2023-05-25T14:55:50.922Z,10.00
2023-05-25T14:59:59.814Z,9.70
2023-05-25T15:04:08.578Z,9.80
2023-05-25T15:08:16.360Z,9.60
2023-05-25T15:12:23.795Z,9.80
2023-05-25T15:16:31.989Z,8.70
2023-05-25T15:20:39.964Z,9.70
2023-05-25T15:24:48.106Z,14.60
2023-05-25T15:28:57.250Z,12.10
2023-05-25T15:33:04.936Z,8.80
2023-05-25T15:37:13.268Z,11.10
2023-05-25T15:41:21.069Z,8.70
2023-05-25T15:45:28.712Z,10.80
2023-05-25T15:49:37.159Z,8.40
2023-05-25T15:53:45.602Z,11.90
2023-05-25T15:57:53.156Z,10.10
2023-05-25T16:02:01.526Z,9.60
2023-05-25T16:06:13.829Z,10.70
2023-05-25T16:10:22.392Z,9.20
2023-05-25T16:14:30.372Z,9.00
2023-05-25T16:18:39.109Z,8.50
2023-05-25T16:22:46.886Z,10.70
2023-05-25T16:26:54.505Z,11.60
2023-05-25T16:31:02.348Z,9.50
2023-05-25T16:35:12.268Z,8.60
2023-05-25T16:39:20.747Z,10.20
2023-05-25T16:43:29.209Z,10.80
2023-05-25T16:47:36.909Z,9.70
2023-05-25T16:51:44.759Z,9.90
2023-05-25T16:55:52.919Z,9.30
2023-05-25T17:00:00.790Z,8.80
2023-05-25T17:04:09.281Z,9.20
2023-05-25T17:08:17.749Z,8.70
2023-05-25T17:12:25.682Z,8.40
2023-05-25T17:16:33.901Z,9.30
2023-05-25T17:20:41.963Z,10.70
2023-05-25T17:24:50.870Z,8.50
2023-05-25T17:29:01.142Z,9.30
2023-05-25T17:33:12.933Z,9.10
2023-05-25T17:37:21.775Z,7.70
2023-05-25T17:41:30.796Z,13.00
2023-05-25T17:45:39.178Z,10.50
2023-05-25T17:49:47.416Z,10.80
2023-05-25T17:53:55.073Z,10.00
2023-05-25T17:58:02.679Z,9.80
2023-05-25T18:02:11.309Z,8.60
2023-05-25T18:06:19.540Z,9.60
2023-05-25T18:10:28.780Z,9.90
2023-05-25T18:14:37.910Z,8.10
2023-05-25T18:18:47.723Z,8.70
2023-05-25T18:22:57.148Z,9.40
2023-05-25T18:27:06.440Z,11.30
2023-05-25T18:31:14.781Z,9.20
2023-05-25T18:35:25.799Z,19.50
2023-05-25T18:39:34.126Z,24.80
2023-05-25T18:43:42.591Z,26.10
2023-05-25T18:47:51.415Z,21.00
2023-05-25T18:51:59.182Z,11.40
2023-05-25T18:56:07.349Z,10.70
2023-05-25T19:00:18.051Z,11.50
2023-05-25T19:04:25.744Z,20.80
2023-05-25T19:08:34.619Z,18.80
2023-05-25T19:12:44.026Z,17.80
2023-05-25T19:16:52.701Z,19.30
2023-05-25T19:21:01.234Z,24.40
2023-05-25T19:25:10.444Z,21.50
2023-05-25T19:29:19.489Z,12.40
2023-05-25T19:33:26.911Z,10.90
2023-05-25T19:37:37.746Z,11.20
2023-05-25T19:41:46.771Z,12.00
2023-05-25T19:45:56.399Z,11.20
2023-05-25T19:50:06.455Z,14.60
2023-05-25T19:54:14.924Z,13.50
2023-05-25T19:58:22.807Z,12.70
2023-05-25T20:02:32.157Z,15.70
2023-05-25T20:06:39.885Z,12.60
2023-05-25T20:10:47.539Z,14.50
2023-05-25T20:14:59.638Z,11.10
2023-05-25T20:19:11.300Z,12.70
2023-05-25T20:23:19.958Z,17.40
2023-05-25T20:27:28.521Z,11.30
2023-05-25T20:31:36.160Z,14.70
2023-05-25T20:35:44.194Z,13.20
2023-05-25T20:39:53.642Z,12.30
2023-05-25T20:44:02.478Z,12.60
2023-05-25T20:48:12.965Z,13.60
2023-05-25T20:52:21.941Z,12.10
2023-05-25T20:56:31.880Z,12.80
2023-05-25T21:00:39.754Z,14.10
2023-05-25T21:04:47.489Z,14.80
2023-05-25T21:08:55.372Z,17.40
2023-05-25T21:13:02.822Z,17.10
2023-05-25T21:17:10.909Z,16.30
2023-05-25T21:21:19.179Z,13.30
2023-05-25T21:25:26.956Z,16.80
2023-05-25T21:29:34.456Z,14.80
2023-05-25T21:33:42.167Z,14.90
2023-05-25T21:37:50.028Z,13.60
2023-05-25T21:41:57.600Z,12.40
2023-05-25T21:46:05.404Z,13.10
2023-05-25T21:50:13.116Z,14.10
2023-05-25T21:54:20.935Z,15.20
2023-05-25T21:58:28.445Z,14.80
2023-05-25T22:02:35.916Z,15.30
2023-05-25T22:06:45.474Z,16.20
2023-05-25T22:10:53.005Z,14.60
2023-05-25T22:15:00.590Z,16.10
2023-05-25T22:19:08.148Z,17.20
2023-05-25T22:23:16.901Z,16.30
2023-05-25T22:27:25.005Z,14.90
2023-05-25T22:31:33.576Z,15.80
2023-05-25T22:35:41.153Z,17.70
2023-05-25T22:39:48.933Z,14.40
2023-05-25T22:43:59.868Z,15.70
2023-05-25T22:48:12.559Z,15.00
2023-05-25T22:52:21.957Z,16.10
2023-05-25T22:56:29.894Z,21.70
2023-05-25T23:00:37.764Z,18.40
2023-05-25T23:04:46.070Z,15.40
2023-05-25T23:08:54.065Z,16.40
2023-05-25T23:13:02.429Z,15.80
2023-05-25T23:17:10.064Z,18.30
2023-05-25T23:21:18.447Z,18.60
2023-05-25T23:25:26.185Z,16.50
2023-05-25T23:29:34.872Z,16.20
2023-05-25T23:33:42.911Z,19.90
2023-05-25T23:37:52.308Z,20.50
2023-05-25T23:42:00.505Z,19.30
2023-05-25T23:46:09.018Z,22.30
2023-05-25T23:50:16.658Z,20.30
2023-05-25T23:54:24.012Z,20.40
2023-05-25T23:58:34.348Z,20.80
